createdAt,value
2018-08-31T00:02:27.207Z,101375.45
2018-08-31T00:05:06.851Z,101382.78
2018-08-31T00:07:58.418Z,101375.20
2018-08-31T00:10:45.125Z,101380.88
2018-08-31T00:13:13.523Z,101380.08
2018-08-31T00:15:41.891Z,101382.07
2018-08-31T00:18:10.259Z,101380.72
2018-08-31T00:20:39.739Z,101383.40
2018-08-31T00:23:08.428Z,101380.03
2018-08-31T00:26:14.647Z,101388.63
2018-08-31T00:29:08.711Z,101389.83
2018-08-31T00:33:52.599Z,101391.91
2018-08-31T00:37:37.436Z,101392.78
2018-08-31T00:40:17.252Z,101395.30
2018-08-31T00:43:38.915Z,101393.89
2018-08-31T00:46:07.297Z,101388.78
2018-08-31T00:48:35.720Z,101392.92
2018-08-31T00:51:04.169Z,101396.39
2018-08-31T00:53:32.563Z,101391.52
2018-08-31T00:56:00.932Z,101389.16
2018-08-31T00:58:29.323Z,101396.19
2018-08-31T01:00:57.715Z,101396.03
2018-08-31T01:03:26.058Z,101400.22
2018-08-31T01:05:54.447Z,101400.08
2018-08-31T01:08:22.841Z,101395.92
2018-08-31T01:10:51.191Z,101398.76
2018-08-31T01:13:19.545Z,101395.36
2018-08-31T01:15:47.891Z,101398.73
2018-08-31T01:18:16.284Z,101397.39
2018-08-31T01:20:44.643Z,101400.06
2018-08-31T01:23:13.022Z,101393.17
2018-08-31T01:25:41.359Z,101393.67
2018-08-31T01:28:09.732Z,101396.58
2018-08-31T01:30:38.132Z,101398.12
2018-08-31T01:33:06.511Z,101405.52
2018-08-31T01:35:34.908Z,101409.95
2018-08-31T01:38:03.267Z,101404.95
2018-08-31T01:40:31.627Z,101409.28
2018-08-31T01:42:59.993Z,101403.75
2018-08-31T01:45:28.340Z,101409.55
2018-08-31T01:47:56.689Z,101408.98
2018-08-31T01:50:25.061Z,101416.34
2018-08-31T01:52:53.442Z,101411.42
2018-08-31T01:55:31.464Z,101409.08
2018-08-31T01:58:00.751Z,101403.13
2018-08-31T02:00:29.348Z,101403.68
2018-08-31T02:02:57.709Z,101408.42
2018-08-31T02:05:26.063Z,101402.41
2018-08-31T02:07:54.416Z,101406.67
2018-08-31T02:10:22.795Z,101410.59
2018-08-31T02:12:51.158Z,101404.02
2018-08-31T02:15:19.520Z,101415.63
2018-08-31T02:17:47.888Z,101410.50
2018-08-31T02:20:16.703Z,101416.16
2018-08-31T02:22:45.051Z,101420.31
2018-08-31T02:25:13.994Z,101417.23
2018-08-31T02:27:42.355Z,101408.76
2018-08-31T02:30:10.736Z,101410.66
2018-08-31T02:32:39.130Z,101415.98
2018-08-31T02:35:07.528Z,101409.91
2018-08-31T02:37:36.010Z,101415.30
2018-08-31T02:40:04.372Z,101414.89
2018-08-31T02:42:32.731Z,101409.77
2018-08-31T02:45:01.068Z,101412.46
2018-08-31T02:47:29.399Z,101410.05
2018-08-31T02:49:57.813Z,101409.84
2018-08-31T02:52:26.182Z,101418.66
2018-08-31T02:54:54.540Z,101427.64
2018-08-31T02:57:22.915Z,101422.16
2018-08-31T02:59:51.285Z,101429.95
2018-08-31T03:02:19.677Z,101425.88
2018-08-31T03:04:48.031Z,101427.06
2018-08-31T03:07:16.393Z,101430.23
2018-08-31T03:09:44.789Z,101425.80
2018-08-31T03:12:13.152Z,101427.27
2018-08-31T03:14:41.497Z,101433.53
2018-08-31T03:17:09.926Z,101440.06
2018-08-31T03:19:38.289Z,101442.41
2018-08-31T03:22:06.633Z,101439.39
2018-08-31T03:24:35.116Z,101446.64
2018-08-31T03:27:03.470Z,101445.73
2018-08-31T03:29:31.810Z,101442.88
2018-08-31T03:32:00.308Z,101449.02
2018-08-31T03:34:28.730Z,101447.98
2018-08-31T03:36:57.098Z,101456.81
2018-08-31T03:39:25.488Z,101451.35
2018-08-31T03:41:53.818Z,101457.29
2018-08-31T03:44:22.224Z,101448.73
2018-08-31T03:46:50.603Z,101445.57
2018-08-31T03:49:18.978Z,101449.21
2018-08-31T03:51:47.334Z,101450.13
2018-08-31T03:54:15.719Z,101445.77
2018-08-31T03:56:44.072Z,101448.94
2018-08-31T03:59:12.429Z,101455.27
2018-08-31T04:01:40.824Z,101452.23
2018-08-31T04:04:09.203Z,101454.23
2018-08-31T04:06:37.569Z,101449.80
2018-08-31T04:09:07.679Z,101455.47
2018-08-31T04:11:36.037Z,101458.06
2018-08-31T04:14:04.490Z,101460.80
2018-08-31T04:16:32.837Z,101463.27
2018-08-31T04:19:06.521Z,101474.91
2018-08-31T04:21:35.973Z,101472.69
2018-08-31T04:24:04.407Z,101472.28
2018-08-31T04:26:32.766Z,101470.39
2018-08-31T04:29:01.116Z,101472.91
2018-08-31T04:31:29.493Z,101472.00
2018-08-31T04:33:57.939Z,101481.42
2018-08-31T04:36:26.269Z,101482.70
2018-08-31T04:38:54.635Z,101480.23
2018-08-31T04:41:23.027Z,101477.50
2018-08-31T04:43:51.415Z,101478.30
2018-08-31T04:46:19.790Z,101489.16
2018-08-31T04:48:48.156Z,101484.92
2018-08-31T04:51:16.630Z,101483.69
2018-08-31T04:53:45.006Z,101482.02
2018-08-31T04:56:13.590Z,101489.50
2018-08-31T04:58:42.017Z,101489.90
2018-08-31T05:01:10.415Z,101489.83
2018-08-31T05:03:39.012Z,101486.66
2018-08-31T05:06:07.414Z,101487.42
2018-08-31T05:08:35.800Z,101487.61
2018-08-31T05:11:04.209Z,101484.02
2018-08-31T05:13:32.609Z,101486.95
2018-08-31T05:16:01.134Z,101498.20
2018-08-31T05:18:29.500Z,101491.55
2018-08-31T05:20:58.002Z,101488.39
2018-08-31T05:23:26.501Z,101488.19
2018-08-31T05:25:54.979Z,101483.84
2018-08-31T05:28:23.405Z,101486.48
2018-08-31T05:30:51.752Z,101485.62
2018-08-31T05:33:20.125Z,101482.13
2018-08-31T05:35:48.468Z,101488.62
2018-08-31T05:38:16.905Z,101489.44
2018-08-31T05:40:45.266Z,101489.58
2018-08-31T05:43:13.613Z,101487.42
2018-08-31T05:45:41.958Z,101498.88
2018-08-31T05:48:10.327Z,101498.14
2018-08-31T05:50:38.712Z,101499.81
2018-08-31T05:53:07.089Z,101498.13
2018-08-31T05:55:35.460Z,101502.91
2018-08-31T05:58:03.822Z,101500.30
2018-08-31T06:00:32.190Z,101499.61
2018-08-31T06:03:00.575Z,101504.80
2018-08-31T06:05:28.932Z,101514.55
2018-08-31T06:07:57.328Z,101514.98
2018-08-31T06:10:25.659Z,101518.81
2018-08-31T06:12:54.084Z,101530.95
2018-08-31T06:15:22.457Z,101526.51
2018-08-31T06:17:50.801Z,101534.47
2018-08-31T06:20:19.196Z,101536.48
2018-08-31T06:22:47.540Z,101533.44
2018-08-31T06:25:15.888Z,101543.05
2018-08-31T06:27:44.211Z,101533.56
2018-08-31T06:30:12.735Z,101533.26
2018-08-31T06:32:41.193Z,101532.22
2018-08-31T06:35:09.526Z,101527.64
2018-08-31T06:37:37.888Z,101530.77
2018-08-31T06:40:06.516Z,101523.61
2018-08-31T06:42:34.950Z,101524.36
2018-08-31T06:45:03.350Z,101523.70
2018-08-31T06:47:31.751Z,101528.55
2018-08-31T06:50:00.088Z,101534.34
2018-08-31T06:52:28.533Z,101541.92
2018-08-31T06:54:56.923Z,101539.98
2018-08-31T07:00:17.567Z,101538.94
2018-08-31T07:02:46.585Z,101545.41
2018-08-31T07:05:14.921Z,101543.66
2018-08-31T07:07:43.246Z,101554.47
2018-08-31T07:10:12.348Z,101556.45
2018-08-31T07:12:41.942Z,101561.08
2018-08-31T07:15:10.978Z,101569.34
2018-08-31T07:17:39.991Z,101567.03
2018-08-31T07:20:08.627Z,101571.45
2018-08-31T07:22:38.064Z,101562.32
2018-08-31T07:25:06.955Z,101571.80
2018-08-31T07:27:35.335Z,101576.09
2018-08-31T07:30:03.996Z,101573.06
2018-08-31T07:32:32.311Z,101582.86
2018-08-31T07:35:00.917Z,101583.00
2018-08-31T07:37:29.704Z,101589.85
2018-08-31T07:39:58.039Z,101591.75
2018-08-31T07:42:26.933Z,101593.91
2018-08-31T07:44:55.630Z,101596.02
2018-08-31T07:47:24.287Z,101602.02
2018-08-31T07:49:52.622Z,101591.22
2018-08-31T07:52:21.072Z,101586.94
2018-08-31T07:54:50.025Z,101595.00
2018-08-31T07:57:19.304Z,101598.34
2018-08-31T07:59:49.361Z,101596.59
2018-08-31T08:02:18.284Z,101588.31
2018-08-31T08:04:47.256Z,101596.72
2018-08-31T08:07:15.569Z,101600.31
2018-08-31T08:09:43.896Z,101605.33
2018-08-31T08:12:12.807Z,101605.06
2018-08-31T08:14:42.029Z,101611.49
2018-08-31T08:17:11.484Z,101604.72
2018-08-31T08:19:39.915Z,101604.53
2018-08-31T08:22:08.550Z,101610.61
2018-08-31T08:24:37.698Z,101607.34
2018-08-31T08:27:06.017Z,101605.94
2018-08-31T08:29:34.365Z,101609.84
2018-08-31T08:32:02.774Z,101610.48
2018-08-31T08:34:31.116Z,101610.91
2018-08-31T08:36:59.441Z,101611.97
2018-08-31T08:39:29.323Z,101615.01
2018-08-31T08:41:57.670Z,101616.97
2018-08-31T08:44:27.110Z,101617.30
2018-08-31T08:46:55.437Z,101614.94
2018-08-31T08:49:23.742Z,101618.22
2018-08-31T08:51:52.107Z,101626.63
2018-08-31T08:54:20.811Z,101624.94
2018-08-31T08:56:49.124Z,101629.02
2018-08-31T08:59:18.022Z,101630.53
2018-08-31T09:01:47.555Z,101639.24
2018-08-31T09:04:15.880Z,101632.98
2018-08-31T09:06:44.327Z,101638.66
2018-08-31T09:09:12.662Z,101634.97
2018-08-31T09:11:41.004Z,101628.67
2018-08-31T09:14:09.623Z,101634.66
2018-08-31T09:16:37.977Z,101630.91
2018-08-31T09:19:06.384Z,101628.32
2018-08-31T09:21:34.790Z,101625.41
2018-08-31T09:24:03.245Z,101619.00
2018-08-31T09:26:31.572Z,101621.02
2018-08-31T09:28:59.877Z,101614.05
2018-08-31T09:31:28.229Z,101612.25
2018-08-31T09:33:57.458Z,101616.89
2018-08-31T09:36:25.898Z,101617.05
2018-08-31T09:38:54.244Z,101613.94
2018-08-31T09:41:22.983Z,101611.59
2018-08-31T09:43:52.035Z,101611.13
2018-08-31T09:46:20.380Z,101608.59
2018-08-31T09:48:49.008Z,101607.02
2018-08-31T09:51:17.319Z,101602.09
2018-08-31T09:53:45.622Z,101611.56
2018-08-31T09:56:14.553Z,101604.69
2018-08-31T09:58:42.889Z,101601.34
2018-08-31T10:01:16.595Z,101603.63
2018-08-31T10:03:47.196Z,101602.22
2018-08-31T10:06:15.539Z,101614.28
2018-08-31T10:08:43.948Z,101611.56
2018-08-31T10:11:12.620Z,101607.59
2018-08-31T10:13:40.986Z,101606.64
2018-08-31T10:16:09.789Z,101617.36
2018-08-31T10:18:38.930Z,101614.42
2018-08-31T10:21:08.026Z,101614.58
2018-08-31T10:23:37.275Z,101604.92
2018-08-31T10:26:05.788Z,101603.63
2018-08-31T10:28:34.202Z,101604.46
2018-08-31T10:31:02.607Z,101614.08
2018-08-31T10:33:31.098Z,101608.17
2018-08-31T10:35:59.478Z,101617.80
2018-08-31T10:38:27.909Z,101604.29
2018-08-31T10:40:56.336Z,101605.66
2018-08-31T10:43:25.290Z,101599.69
2018-08-31T10:45:53.655Z,101602.92
2018-08-31T10:48:22.137Z,101596.83
2018-08-31T10:50:50.529Z,101609.47
2018-08-31T10:53:18.941Z,101609.59
2018-08-31T10:55:47.304Z,101608.80
2018-08-31T10:58:15.647Z,101604.00
2018-08-31T11:00:44.009Z,101606.07
2018-08-31T11:03:12.357Z,101604.69
2018-08-31T11:05:40.693Z,101603.29
2018-08-31T11:08:09.058Z,101603.22
2018-08-31T11:10:37.422Z,101600.41
2018-08-31T11:13:06.047Z,101607.52
2018-08-31T11:15:34.328Z,101606.73
2018-08-31T11:18:02.743Z,101606.13
2018-08-31T11:20:31.143Z,101607.78
2018-08-31T11:22:59.547Z,101606.33
2018-08-31T11:25:27.973Z,101607.29
2018-08-31T11:27:56.479Z,101605.22
2018-08-31T11:30:24.726Z,101605.64
2018-08-31T11:32:53.088Z,101605.30
2018-08-31T11:35:21.495Z,101619.88
2018-08-31T11:37:49.842Z,101612.43
2018-08-31T11:40:19.619Z,101613.19
2018-08-31T11:42:47.990Z,101615.03
2018-08-31T11:45:16.335Z,101615.27
2018-08-31T11:47:44.689Z,101620.39
2018-08-31T11:50:13.125Z,101623.39
2018-08-31T11:52:41.474Z,101614.41
2018-08-31T11:55:09.819Z,101615.52
2018-08-31T11:57:38.198Z,101623.36
2018-08-31T12:00:06.749Z,101617.21
2018-08-31T12:02:35.676Z,101613.58
2018-08-31T12:05:04.083Z,101623.50
2018-08-31T12:07:32.467Z,101617.55
2018-08-31T12:10:00.830Z,101619.52
2018-08-31T12:12:29.248Z,101615.13
2018-08-31T12:14:57.639Z,101614.82
2018-08-31T12:17:26.034Z,101604.36
2018-08-31T12:19:54.393Z,101600.11
2018-08-31T12:22:22.726Z,101603.77
2018-08-31T12:24:51.073Z,101604.62
2018-08-31T12:27:19.424Z,101601.05
2018-08-31T12:29:47.748Z,101608.83
2018-08-31T12:32:16.173Z,101608.19
2018-08-31T12:34:44.538Z,101608.33
2018-08-31T12:37:13.615Z,101602.06
2018-08-31T12:39:42.513Z,101598.92
2018-08-31T12:42:11.545Z,101601.89
2018-08-31T12:44:40.156Z,101600.00
2018-08-31T12:47:08.571Z,101603.75
2018-08-31T12:49:37.044Z,101597.48
2018-08-31T12:52:05.808Z,101592.31
2018-08-31T12:54:35.011Z,101593.96
2018-08-31T12:57:03.397Z,101593.67
2018-08-31T12:59:31.772Z,101596.23
2018-08-31T13:02:00.139Z,101594.70
2018-08-31T13:04:28.563Z,101594.88
2018-08-31T13:06:56.980Z,101596.19
2018-08-31T13:09:25.328Z,101590.23
2018-08-31T13:11:54.832Z,101589.37
2018-08-31T13:14:23.276Z,101596.56
2018-08-31T13:16:51.652Z,101593.18
2018-08-31T13:19:20.044Z,101588.83
2018-08-31T13:21:48.735Z,101592.45
2018-08-31T13:24:17.090Z,101585.38
2018-08-31T13:26:45.588Z,101584.62
2018-08-31T13:29:13.969Z,101592.26
2018-08-31T13:31:42.333Z,101586.79
2018-08-31T13:34:11.504Z,101593.02
2018-08-31T13:36:39.810Z,101593.18
2018-08-31T13:39:08.986Z,101591.67
2018-08-31T13:41:37.323Z,101589.70
2018-08-31T13:44:05.794Z,101592.14
2018-08-31T13:46:34.274Z,101592.26
2018-08-31T13:49:03.074Z,101589.04
2018-08-31T13:51:31.419Z,101593.78
2018-08-31T13:53:59.830Z,101592.75
2018-08-31T13:56:28.402Z,101583.55
2018-08-31T13:58:57.063Z,101586.47
2018-08-31T14:01:25.440Z,101592.47
2018-08-31T14:03:53.836Z,101591.32
2018-08-31T14:06:22.308Z,101580.21
2018-08-31T14:08:50.999Z,101585.05
2018-08-31T14:11:19.488Z,101589.25
2018-08-31T14:13:48.468Z,101585.29
2018-08-31T14:16:16.888Z,101581.58
2018-08-31T14:18:45.775Z,101586.69
2018-08-31T14:21:14.827Z,101584.02
2018-08-31T14:23:43.332Z,101586.66
2018-08-31T14:26:11.697Z,101590.45
2018-08-31T14:28:40.049Z,101595.53
2018-08-31T14:31:08.528Z,101585.58
2018-08-31T14:33:36.940Z,101595.13
2018-08-31T14:36:05.491Z,101599.55
2018-08-31T14:38:34.729Z,101593.55
2018-08-31T14:41:03.079Z,101595.20
2018-08-31T14:43:31.448Z,101592.64
2018-08-31T14:45:59.800Z,101592.31
2018-08-31T14:48:28.204Z,101594.38
2018-08-31T14:50:57.095Z,101589.59
2018-08-31T14:53:25.476Z,101586.91
2018-08-31T14:55:53.856Z,101578.02
2018-08-31T14:58:22.760Z,101585.78
2018-08-31T15:00:51.157Z,101577.20
2018-08-31T15:03:19.551Z,101581.99
2018-08-31T15:05:48.017Z,101586.86
2018-08-31T15:08:16.404Z,101584.39
2018-08-31T15:10:44.868Z,101584.52
2018-08-31T15:13:13.262Z,101589.30
2018-08-31T15:15:41.629Z,101590.61
2018-08-31T15:18:10.109Z,101596.93
2018-08-31T15:20:38.513Z,101592.27
2018-08-31T15:23:06.915Z,101592.64
2018-08-31T15:25:35.390Z,101594.21
2018-08-31T15:28:03.727Z,101589.84
2018-08-31T15:30:32.096Z,101595.78
2018-08-31T15:33:00.467Z,101591.81
2018-08-31T15:35:28.884Z,101602.21
2018-08-31T15:37:57.261Z,101593.17
2018-08-31T15:40:26.243Z,101596.02
2018-08-31T15:42:54.693Z,101607.86
2018-08-31T15:45:23.084Z,101603.23
2018-08-31T15:47:51.483Z,101605.78
2018-08-31T15:50:20.203Z,101604.80
2018-08-31T15:52:48.684Z,101609.70
2018-08-31T15:55:17.066Z,101614.19
2018-08-31T15:57:45.468Z,101618.77
2018-08-31T16:00:14.409Z,101618.33
2018-08-31T16:02:42.817Z,101607.75
2018-08-31T16:05:11.270Z,101599.66
2018-08-31T16:07:39.865Z,101614.38
2018-08-31T16:10:08.666Z,101605.94
2018-08-31T16:12:37.061Z,101611.41
2018-08-31T16:15:05.455Z,101609.35
2018-08-31T16:17:34.060Z,101604.52
2018-08-31T16:20:03.016Z,101609.66
2018-08-31T16:22:31.399Z,101612.58
2018-08-31T16:24:59.765Z,101612.20
2018-08-31T16:27:28.728Z,101611.62
2018-08-31T16:29:57.780Z,101619.01
2018-08-31T16:32:26.225Z,101618.44
2018-08-31T16:34:54.625Z,101618.70
2018-08-31T16:37:23.010Z,101618.39
2018-08-31T16:39:51.373Z,101614.72
2018-08-31T16:42:19.776Z,101610.04
2018-08-31T16:44:48.150Z,101608.30
2018-08-31T16:47:16.709Z,101609.28
2018-08-31T16:52:32.218Z,101609.11
2018-08-31T16:55:00.700Z,101608.05
2018-08-31T16:57:29.099Z,101616.11
2018-08-31T16:59:57.725Z,101612.02
2018-08-31T17:02:26.589Z,101619.89
2018-08-31T17:04:55.023Z,101616.03
2018-08-31T17:07:23.451Z,101619.06
2018-08-31T17:09:51.824Z,101611.97
2018-08-31T17:12:20.248Z,101616.20
2018-08-31T17:14:48.696Z,101612.63
2018-08-31T17:17:17.754Z,101612.81
2018-08-31T17:19:46.998Z,101616.71
2018-08-31T17:22:15.397Z,101623.13
2018-08-31T17:24:43.850Z,101632.58
2018-08-31T17:27:17.691Z,101633.74
2018-08-31T17:29:47.240Z,101627.44
2018-08-31T17:32:21.295Z,101634.72
2018-08-31T17:34:55.164Z,101637.25
2018-08-31T17:37:29.917Z,101633.92
2018-08-31T17:40:15.453Z,101640.34
2018-08-31T17:42:45.670Z,101641.02
2018-08-31T17:45:22.105Z,101639.08
2018-08-31T17:47:59.389Z,101645.00
2018-08-31T17:50:28.460Z,101649.75
2018-08-31T17:52:56.957Z,101649.06
2018-08-31T17:55:25.394Z,101654.00
2018-08-31T17:57:53.817Z,101653.42
2018-08-31T18:00:22.557Z,101655.94
2018-08-31T18:02:51.286Z,101660.80
2018-08-31T18:05:19.721Z,101664.48
2018-08-31T18:07:52.792Z,101667.56
2018-08-31T18:10:24.469Z,101664.23
2018-08-31T18:12:55.101Z,101672.25
2018-08-31T18:15:25.514Z,101673.81
2018-08-31T18:18:05.784Z,101675.66
2018-08-31T18:20:38.995Z,101672.05
2018-08-31T18:23:08.289Z,101674.63
2018-08-31T18:25:36.698Z,101682.98
2018-08-31T18:28:05.282Z,101679.47
2018-08-31T18:30:33.765Z,101671.49
2018-08-31T18:33:02.239Z,101673.13
2018-08-31T18:35:30.807Z,101677.86
2018-08-31T18:37:59.177Z,101681.06
2018-08-31T18:40:27.629Z,101680.53
2018-08-31T18:42:56.522Z,101685.20
2018-08-31T18:45:25.347Z,101684.01
2018-08-31T18:47:53.749Z,101693.61
2018-08-31T18:50:22.467Z,101692.91
2018-08-31T18:52:51.112Z,101693.25
2018-08-31T18:55:19.474Z,101697.69
2018-08-31T18:57:47.979Z,101691.56
2018-08-31T19:00:16.922Z,101695.03
2018-08-31T19:02:45.292Z,101698.01
2018-08-31T19:05:14.559Z,101700.02
2018-08-31T19:07:42.953Z,101703.22
2018-08-31T19:10:11.369Z,101703.55
2018-08-31T19:12:39.740Z,101708.23
2018-08-31T19:15:08.593Z,101710.17
2018-08-31T19:17:36.948Z,101706.65
2018-08-31T19:20:05.573Z,101715.92
2018-08-31T19:22:33.931Z,101714.34
2018-08-31T19:25:02.334Z,101716.18
2018-08-31T19:27:30.762Z,101714.59
2018-08-31T19:29:59.246Z,101717.08
2018-08-31T19:32:27.606Z,101715.15
2018-08-31T19:34:56.433Z,101719.95
2018-08-31T19:37:24.786Z,101721.31
2018-08-31T19:39:53.151Z,101724.19
2018-08-31T19:42:21.511Z,101723.95
2018-08-31T19:44:50.270Z,101724.05
2018-08-31T19:47:18.644Z,101718.66
2018-08-31T19:49:47.026Z,101725.49
2018-08-31T19:52:15.661Z,101725.98
2018-08-31T19:54:44.836Z,101736.43
2018-08-31T19:57:13.436Z,101737.02
2018-08-31T19:59:41.770Z,101739.88
2018-08-31T20:02:10.168Z,101734.22
2018-08-31T20:04:38.623Z,101736.78
2018-08-31T20:07:07.194Z,101742.74
2018-08-31T20:09:35.655Z,101751.03
2018-08-31T20:12:04.656Z,101749.19
2018-08-31T20:14:33.655Z,101753.59
2018-08-31T20:17:02.029Z,101750.55
2018-08-31T20:19:31.016Z,101760.23
2018-08-31T20:22:00.607Z,101759.50
2018-08-31T20:24:28.985Z,101758.79
2018-08-31T20:26:57.402Z,101765.47
2018-08-31T20:29:26.008Z,101766.44
2018-08-31T20:31:56.639Z,101768.91
2018-08-31T20:34:25.334Z,101765.77
2018-08-31T20:36:54.556Z,101765.08
2018-08-31T20:39:23.609Z,101767.12
2018-08-31T20:41:52.096Z,101771.97
2018-08-31T20:44:20.550Z,101780.81
2018-08-31T20:46:48.925Z,101784.20
2018-08-31T20:49:17.307Z,101784.69
2018-08-31T20:51:45.697Z,101788.35
2018-08-31T20:54:14.730Z,101795.03
2018-08-31T20:56:43.145Z,101796.38
2018-08-31T20:59:11.500Z,101793.75
2018-08-31T21:01:40.007Z,101804.95
2018-08-31T21:04:08.481Z,101808.95
2018-08-31T21:06:36.839Z,101806.36
2018-08-31T21:09:07.610Z,101797.98
2018-08-31T21:11:35.943Z,101795.85
2018-08-31T21:14:04.320Z,101789.76
2018-08-31T21:16:32.648Z,101796.72
2018-08-31T21:19:00.964Z,101793.65
2018-08-31T21:21:29.854Z,101800.67
2018-08-31T21:23:58.288Z,101794.59
2018-08-31T21:26:26.676Z,101791.12
2018-08-31T21:28:55.014Z,101796.92
2018-08-31T21:31:23.462Z,101797.19
2018-08-31T21:33:51.879Z,101806.63
2018-08-31T21:36:20.301Z,101806.31
2018-08-31T21:38:48.631Z,101804.80
2018-08-31T21:41:16.982Z,101805.63
2018-08-31T21:43:45.313Z,101807.06
2018-08-31T21:46:13.676Z,101807.67
2018-08-31T21:48:42.018Z,101807.41
2018-08-31T21:51:10.365Z,101809.33
2018-08-31T21:53:38.694Z,101814.43
2018-08-31T21:56:07.123Z,101809.02
2018-08-31T21:58:35.475Z,101815.66
2018-08-31T22:01:08.941Z,101816.13
2018-08-31T22:03:37.246Z,101814.73
2018-08-31T22:06:05.599Z,101812.02
2018-08-31T22:08:33.924Z,101813.91
2018-08-31T22:11:02.249Z,101820.66
2018-08-31T22:13:30.815Z,101821.62
2018-08-31T22:15:59.135Z,101822.97
2018-08-31T22:18:27.458Z,101817.10
2018-08-31T22:20:55.776Z,101819.89
2018-08-31T22:23:24.139Z,101819.80
2018-08-31T22:25:52.457Z,101819.31
2018-08-31T22:28:20.768Z,101821.32
2018-08-31T22:30:49.657Z,101823.77
2018-08-31T22:33:18.051Z,101821.80
2018-08-31T22:35:46.443Z,101818.36
2018-08-31T22:38:14.764Z,101812.16
2018-08-31T22:40:43.174Z,101807.80
2018-08-31T22:43:11.628Z,101810.03
2018-08-31T22:45:40.004Z,101807.86
2018-08-31T22:48:08.352Z,101800.35
2018-08-31T22:50:36.721Z,101808.89
2018-08-31T22:53:05.087Z,101806.98
2018-08-31T22:55:33.404Z,101795.64
2018-08-31T22:58:02.025Z,101797.60
2018-08-31T23:00:31.398Z,101789.89
2018-08-31T23:02:59.784Z,101788.88
2018-08-31T23:05:28.152Z,101795.03
2018-08-31T23:08:01.480Z,101798.08
2018-08-31T23:10:29.865Z,101798.21
2018-08-31T23:12:58.239Z,101801.05
2018-08-31T23:15:26.577Z,101804.31
2018-08-31T23:17:55.284Z,101801.66
2018-08-31T23:20:23.641Z,101801.17
2018-08-31T23:22:56.171Z,101808.76
2018-08-31T23:25:29.774Z,101805.58
2018-08-31T23:27:58.125Z,101808.36
2018-08-31T23:30:26.489Z,101808.89
2018-08-31T23:32:55.128Z,101805.88
2018-08-31T23:35:23.477Z,101802.48
2018-08-31T23:37:51.840Z,101801.73
2018-08-31T23:40:20.906Z,101801.55
2018-08-31T23:42:49.279Z,101810.78
2018-08-31T23:45:18.173Z,101808.64
2018-08-31T23:47:46.818Z,101812.53
2018-08-31T23:50:15.396Z,101806.48
2018-08-31T23:52:44.364Z,101814.31
2018-08-31T23:55:12.741Z,101822.27
2018-08-31T23:57:41.092Z,101819.43
